Al Jubail, Saudi Arabia
Current Conditions -  °F | °C
As of 12:00 PM on Monday 20 Oct 2014 (Local Time) from OEDF Reporting Station
Clear Clear  
Wind Chill: 102°   Ceiling: Unl
Heat Index: 102°   Visibility: 4mi
Dew Point: 50°   Wind: 15mph
Humidity: 17%   Direction: 200°SSW
Pressure: 29.83"   Gusts: NA
Location:  27.01754°N, 49.65477°E
Report Text: OEDF 200900Z 20013KT 6000 SKC 39/10 Q1010 NOSIG
Loading
Personal Weather Stations






























Interactive Weather Map
Tropical Storm Tracking
New forecast layout! Learn more

10-Day Weather Forecast

Advertisements
Track Severe Weather on mobile